createdAt,value
2023-04-05T00:00:56.852Z,4.33
2023-04-05T00:04:02.574Z,4.30
2023-04-05T00:07:08.145Z,3.17
2023-04-05T00:10:11.566Z,4.13
2023-04-05T00:13:14.263Z,5.63
2023-04-05T00:16:19.004Z,6.70
2023-04-05T00:19:23.229Z,4.23
2023-04-05T00:22:26.834Z,3.20
2023-04-05T00:25:29.536Z,7.13
2023-04-05T00:28:32.214Z,5.23
2023-04-05T00:31:36.279Z,4.17
2023-04-05T00:34:38.971Z,4.30
2023-04-05T00:37:41.610Z,6.30
2023-04-05T00:40:44.316Z,6.10
2023-04-05T00:43:48.206Z,6.33
2023-04-05T00:46:52.365Z,4.67
2023-04-05T00:49:55.091Z,5.67
2023-04-05T00:52:58.184Z,5.33
2023-04-05T00:56:01.931Z,4.07
2023-04-05T00:59:04.687Z,4.50
2023-04-05T01:02:16.918Z,6.83
2023-04-05T01:05:32.499Z,5.77
2023-04-05T01:08:41.728Z,6.07
2023-04-05T01:11:47.842Z,7.27
2023-04-05T01:14:53.516Z,5.20
2023-04-05T01:17:57.888Z,6.00
2023-04-05T01:21:10.684Z,4.17
2023-04-05T01:24:25.190Z,6.53
2023-04-05T01:27:39.290Z,6.57
2023-04-05T01:30:48.760Z,6.33
2023-04-05T01:33:59.704Z,8.13
2023-04-05T01:37:07.060Z,6.50
2023-04-05T01:40:10.816Z,5.60
2023-04-05T01:43:14.338Z,10.00
2023-04-05T01:46:18.466Z,9.67
2023-04-05T01:49:21.491Z,5.30
2023-04-05T01:52:24.151Z,4.43
2023-04-05T01:55:26.762Z,4.70
2023-04-05T01:58:29.480Z,5.07
2023-04-05T02:01:33.546Z,4.27
2023-04-05T02:04:36.363Z,7.23
2023-04-05T02:07:39.024Z,6.83
2023-04-05T02:10:42.144Z,5.37
2023-04-05T02:13:45.068Z,6.00
2023-04-05T02:16:49.078Z,4.20
2023-04-05T02:19:52.951Z,6.53
2023-04-05T02:22:55.954Z,5.40
2023-04-05T02:25:58.836Z,5.10
2023-04-05T02:29:01.510Z,4.70
2023-04-05T02:32:06.075Z,6.03
2023-04-05T02:35:10.706Z,5.57
2023-04-05T02:38:13.366Z,3.67
2023-04-05T02:41:16.065Z,5.37
2023-04-05T02:44:18.715Z,4.67
2023-04-05T02:47:22.705Z,6.03
2023-04-05T02:50:25.408Z,4.73
2023-04-05T02:53:28.082Z,5.60
2023-04-05T02:56:30.892Z,4.63
2023-04-05T02:59:33.585Z,3.80
2023-04-05T03:02:38.180Z,4.20
2023-04-05T03:05:42.295Z,4.77
2023-04-05T03:08:46.560Z,4.17
2023-04-05T03:11:49.277Z,3.80
2023-04-05T03:14:51.940Z,5.07
2023-04-05T03:17:57.511Z,4.30
2023-04-05T03:21:00.339Z,5.20
2023-04-05T03:24:03.001Z,2.83
2023-04-05T03:27:06.274Z,5.27
2023-04-05T03:30:10.142Z,4.23
2023-04-05T03:33:14.124Z,5.07
2023-04-05T03:36:17.813Z,5.03
2023-04-05T03:39:20.379Z,10.60
2023-04-05T03:42:23.047Z,5.70
2023-04-05T03:45:27.046Z,4.40
2023-04-05T03:48:31.364Z,5.63
2023-04-05T03:51:34.056Z,4.77
2023-04-05T03:54:36.723Z,4.73
2023-04-05T03:57:39.609Z,4.73
2023-04-05T04:00:42.254Z,7.53
2023-04-05T04:03:46.228Z,5.57
2023-04-05T04:06:49.047Z,3.90
2023-04-05T04:09:51.614Z,7.63
2023-04-05T04:12:54.262Z,3.83
2023-04-05T04:15:56.904Z,7.40
2023-04-05T04:19:01.224Z,6.23
2023-04-05T04:22:04.304Z,5.77
2023-04-05T04:25:10.602Z,5.30
2023-04-05T04:28:13.635Z,6.63
2023-04-05T04:31:16.295Z,3.80
2023-04-05T04:34:21.199Z,6.07
2023-04-05T04:37:30.159Z,4.20
2023-04-05T04:40:38.633Z,5.00
2023-04-05T04:43:43.832Z,6.80
2023-04-05T04:46:46.529Z,5.30
2023-04-05T04:49:50.556Z,5.00
2023-04-05T04:52:53.298Z,5.53
2023-04-05T04:55:57.269Z,5.30
2023-04-05T04:59:00.817Z,3.93
2023-04-05T05:02:03.494Z,5.43
2023-04-05T05:05:08.474Z,3.50
2023-04-05T05:08:11.230Z,4.97
2023-04-05T05:11:13.980Z,6.10
2023-04-05T05:14:16.592Z,4.73
2023-04-05T05:17:19.743Z,5.83
2023-04-05T05:20:23.809Z,5.77
2023-04-05T05:23:26.688Z,4.40
2023-04-05T05:26:29.288Z,7.00
2023-04-05T05:29:32.658Z,6.43
2023-04-05T05:32:35.370Z,7.67
2023-04-05T05:35:39.562Z,7.17
2023-04-05T05:38:43.261Z,5.77
2023-04-05T05:41:46.082Z,7.43
2023-04-05T05:44:48.717Z,6.40
2023-04-05T05:47:52.020Z,5.27
2023-04-05T05:50:56.335Z,5.20
2023-04-05T05:53:59.380Z,6.87
2023-04-05T05:57:02.425Z,8.83
2023-04-05T06:00:09.405Z,6.53
2023-04-05T06:03:12.439Z,7.63
2023-04-05T06:06:17.963Z,8.00
2023-04-05T06:09:21.723Z,9.23
2023-04-05T06:12:24.386Z,7.17
2023-04-05T06:15:27.315Z,9.70
2023-04-05T06:18:30.041Z,6.63
2023-04-05T06:21:34.041Z,8.73
2023-04-05T06:24:36.805Z,8.57
2023-04-05T06:27:39.427Z,6.90
2023-04-05T06:30:42.247Z,7.17
2023-04-05T06:33:45.557Z,8.73
2023-04-05T06:36:50.059Z,8.03
2023-04-05T06:39:52.831Z,6.70
2023-04-05T06:42:55.877Z,6.40
2023-04-05T06:45:58.778Z,6.07
2023-04-05T06:49:03.732Z,7.90
2023-04-05T06:52:08.546Z,9.23
2023-04-05T06:55:11.266Z,6.13
2023-04-05T06:58:13.818Z,5.77
2023-04-05T07:01:17.472Z,5.83
2023-04-05T07:04:20.198Z,5.03
2023-04-05T07:07:24.249Z,5.13
2023-04-05T07:10:26.924Z,6.47
2023-04-05T07:13:29.629Z,5.37
2023-04-05T07:16:32.497Z,5.80
2023-04-05T07:19:35.508Z,6.37
2023-04-05T07:22:39.567Z,6.20
2023-04-05T07:25:42.488Z,6.77
2023-04-05T07:28:45.140Z,5.30
2023-04-05T07:31:47.795Z,4.47
2023-04-05T07:34:50.763Z,7.40
2023-04-05T07:37:54.818Z,5.17
2023-04-05T07:40:57.456Z,5.00
2023-04-05T07:44:00.454Z,6.70
2023-04-05T07:47:03.959Z,5.47
2023-04-05T07:50:09.833Z,5.83
2023-04-05T07:53:13.865Z,6.23
2023-04-05T07:56:16.667Z,6.53
2023-04-05T07:59:19.415Z,7.20
2023-04-05T08:02:22.197Z,5.70
2023-04-05T08:05:24.928Z,4.93
2023-04-05T08:08:29.142Z,5.90
2023-04-05T08:11:31.766Z,7.83
2023-04-05T08:14:34.397Z,4.80
2023-04-05T08:17:36.990Z,7.87
2023-04-05T08:20:40.760Z,7.17
2023-04-05T08:23:44.999Z,6.10
2023-04-05T08:26:47.586Z,4.60
2023-04-05T08:29:50.330Z,5.80
2023-04-05T08:32:52.934Z,4.60
2023-04-05T08:35:55.784Z,4.70
2023-04-05T08:38:59.926Z,3.90
2023-04-05T08:42:09.268Z,4.90
2023-04-05T08:45:15.305Z,5.47
2023-04-05T08:48:18.336Z,3.50
2023-04-05T08:51:22.010Z,6.10
2023-04-05T08:54:26.140Z,8.43
2023-04-05T08:57:31.987Z,4.33
2023-04-05T09:00:34.857Z,4.17
2023-04-05T09:03:41.733Z,4.43
2023-04-05T09:06:45.510Z,3.13
2023-04-05T09:09:53.665Z,4.20
2023-04-05T09:12:57.027Z,4.13
2023-04-05T09:16:02.236Z,6.50
2023-04-05T09:19:05.453Z,5.20
2023-04-05T09:22:09.737Z,3.67
2023-04-05T09:25:13.931Z,5.47
2023-04-05T09:28:16.566Z,4.83
2023-04-05T09:31:32.866Z,4.97
2023-04-05T09:34:37.851Z,3.53
2023-04-05T09:37:53.259Z,4.20
2023-04-05T09:40:57.430Z,4.20
2023-04-05T09:44:00.133Z,5.13
2023-04-05T09:47:16.331Z,4.37
2023-04-05T09:50:20.829Z,4.53
2023-04-05T09:53:23.479Z,3.07
2023-04-05T09:56:27.846Z,3.00
2023-04-05T09:59:31.352Z,3.00
2023-04-05T10:02:38.000Z,5.43
2023-04-05T10:05:40.910Z,4.50
2023-04-05T10:08:43.725Z,3.43
2023-04-05T10:11:48.130Z,4.57
2023-04-05T10:14:50.885Z,3.13
2023-04-05T10:18:00.502Z,3.40
2023-04-05T10:21:03.467Z,4.15
2023-04-05T10:24:16.471Z,4.25
2023-04-05T10:27:24.874Z,4.97
2023-04-05T10:30:35.626Z,4.13
2023-04-05T10:33:42.807Z,4.77
2023-04-05T10:36:54.213Z,4.97
2023-04-05T10:40:04.009Z,3.30
2023-04-05T10:43:14.938Z,5.68
2023-04-05T10:46:21.250Z,4.13
2023-04-05T10:49:33.360Z,4.07
2023-04-05T10:52:38.123Z,5.88
2023-04-05T10:55:41.330Z,4.07
2023-04-05T10:58:46.396Z,4.30
2023-04-05T11:01:50.175Z,3.83
2023-04-05T11:04:56.092Z,3.90
2023-04-05T11:08:03.789Z,3.55
2023-04-05T11:11:07.467Z,4.20
2023-04-05T11:14:21.370Z,3.37
2023-04-05T11:17:29.068Z,4.55
2023-04-05T11:20:42.553Z,3.38
2023-04-05T11:24:02.505Z,4.83
2023-04-05T11:27:10.735Z,3.50
2023-04-05T11:30:14.964Z,4.22
2023-04-05T11:33:39.297Z,3.22
2023-04-05T11:36:45.977Z,4.85
2023-04-05T11:39:48.886Z,3.45
2023-04-05T11:43:00.287Z,4.05
2023-04-05T11:46:05.759Z,3.33
2023-04-05T11:49:08.536Z,4.03
2023-04-05T11:52:13.671Z,3.85
2023-04-05T11:55:16.330Z,3.40
2023-04-05T11:58:21.361Z,3.75
2023-04-05T12:01:25.390Z,3.70
2023-04-05T12:04:28.076Z,2.40
2023-04-05T12:07:36.701Z,4.13
2023-04-05T12:10:39.420Z,4.80
2023-04-05T12:13:42.179Z,4.03
2023-04-05T12:16:52.030Z,3.17
2023-04-05T12:19:55.031Z,3.20
2023-04-05T12:22:58.303Z,4.20
2023-04-05T12:26:01.588Z,3.72
2023-04-05T12:29:05.685Z,4.05
2023-04-05T12:32:09.946Z,4.97
2023-04-05T12:35:13.838Z,3.20
2023-04-05T12:38:17.515Z,4.00
2023-04-05T12:41:28.432Z,3.65
2023-04-05T12:44:32.065Z,5.60
2023-04-05T12:47:37.351Z,4.70
2023-04-05T12:50:43.988Z,3.55
2023-04-05T12:53:47.956Z,4.30
2023-04-05T12:56:52.806Z,5.40
2023-04-05T12:59:55.440Z,4.20
2023-04-05T13:03:01.018Z,3.92
2023-04-05T13:06:04.033Z,3.50
2023-04-05T13:09:06.711Z,5.07
2023-04-05T13:12:09.361Z,5.63
2023-04-05T13:15:12.219Z,4.38
2023-04-05T13:18:16.273Z,4.38
2023-04-05T13:21:18.927Z,3.83
2023-04-05T13:24:21.541Z,4.05
2023-04-05T13:27:24.295Z,3.72
2023-04-05T13:30:27.679Z,3.45
2023-04-05T13:33:31.684Z,3.97
2023-04-05T13:36:34.293Z,3.40
2023-04-05T13:39:37.004Z,4.90
2023-04-05T13:42:39.684Z,3.78
2023-04-05T13:45:42.926Z,5.05
2023-04-05T13:48:47.135Z,3.17
2023-04-05T13:51:49.787Z,3.42
2023-04-05T13:55:02.998Z,3.22
2023-04-05T13:58:06.473Z,4.40
2023-04-05T14:01:09.153Z,3.50
2023-04-05T14:04:13.283Z,3.00
2023-04-05T14:07:18.135Z,3.35
2023-04-05T14:10:21.653Z,4.68
2023-04-05T14:13:24.388Z,2.95
2023-04-05T14:16:27.339Z,2.80
2023-04-05T14:19:31.441Z,3.15
2023-04-05T14:22:34.220Z,3.80
2023-04-05T14:25:36.988Z,4.05
2023-04-05T14:28:39.697Z,4.72
2023-04-05T14:31:42.568Z,3.47
2023-04-05T14:34:46.737Z,5.13
2023-04-05T14:37:49.523Z,3.83
2023-04-05T14:40:52.338Z,3.13
2023-04-05T14:43:55.425Z,2.85
2023-04-05T14:46:58.207Z,4.22
2023-04-05T14:50:02.344Z,4.32
2023-04-05T14:53:05.137Z,5.40
2023-04-05T14:56:09.867Z,4.18
2023-04-05T14:59:12.795Z,4.90
2023-04-05T15:02:15.790Z,3.67
2023-04-05T15:05:20.214Z,3.42
2023-04-05T15:08:22.979Z,3.97
2023-04-05T15:11:25.798Z,5.13
2023-04-05T15:14:32.130Z,4.85
2023-04-05T15:17:35.473Z,4.22
2023-04-05T15:20:39.681Z,2.90
2023-04-05T15:23:42.514Z,3.80
2023-04-05T15:26:45.396Z,3.55
2023-04-05T15:29:48.196Z,4.15
2023-04-05T15:32:50.943Z,3.90
2023-04-05T15:35:55.514Z,3.70
2023-04-05T15:38:58.258Z,3.60
2023-04-05T15:42:03.024Z,3.22
2023-04-05T15:45:06.829Z,3.58
2023-04-05T15:48:09.672Z,3.50
2023-04-05T15:51:13.898Z,3.95
2023-04-05T15:54:18.772Z,3.25
2023-04-05T15:57:21.728Z,3.97
2023-04-05T16:00:24.807Z,4.40
2023-04-05T16:03:27.672Z,3.67
2023-04-05T16:06:32.043Z,3.92
2023-04-05T16:09:34.753Z,5.88
2023-04-05T16:12:37.542Z,4.65
2023-04-05T16:15:40.326Z,5.38
2023-04-05T16:18:43.143Z,4.57
2023-04-05T16:21:47.527Z,3.40
2023-04-05T16:24:50.217Z,4.93
2023-04-05T16:27:52.966Z,3.35
2023-04-05T16:30:56.076Z,3.65
2023-04-05T16:33:58.826Z,6.18
2023-04-05T16:37:03.036Z,3.53
2023-04-05T16:40:07.641Z,4.55
2023-04-05T16:43:10.675Z,3.42
2023-04-05T16:46:13.589Z,4.28
2023-04-05T16:49:16.734Z,3.53
2023-04-05T16:52:21.085Z,3.85
2023-04-05T16:55:23.979Z,2.88
2023-04-05T16:58:26.715Z,3.40
2023-04-05T17:01:30.496Z,3.37
2023-04-05T17:04:33.486Z,3.90
2023-04-05T17:07:37.594Z,4.78
2023-04-05T17:10:40.375Z,4.13
2023-04-05T17:13:44.964Z,4.33
2023-04-05T17:16:47.901Z,3.87
2023-04-05T17:19:50.658Z,4.70
2023-04-05T17:22:54.822Z,3.67
2023-04-05T17:25:57.855Z,3.83
2023-04-05T17:29:00.558Z,3.30
2023-04-05T17:32:03.340Z,2.80
2023-04-05T17:35:06.889Z,4.10
2023-04-05T17:38:11.576Z,3.20
2023-04-05T17:41:14.352Z,5.30
2023-04-05T17:44:17.126Z,3.53
2023-04-05T17:47:19.909Z,3.10
2023-04-05T17:50:24.839Z,3.03
2023-04-05T17:53:30.261Z,4.07
2023-04-05T17:56:33.143Z,3.27
2023-04-05T17:59:36.270Z,4.37
2023-04-05T18:02:40.806Z,3.87
2023-04-05T18:05:43.685Z,4.13
2023-04-05T18:08:47.872Z,4.10
2023-04-05T18:11:51.199Z,5.13
2023-04-05T18:14:53.911Z,4.57
2023-04-05T18:17:56.903Z,5.73
2023-04-05T18:21:01.796Z,4.17
2023-04-05T18:24:07.071Z,3.83
2023-04-05T18:27:10.127Z,4.43
2023-04-05T18:30:14.526Z,3.90
2023-04-05T18:33:17.718Z,4.70
2023-04-05T18:36:20.491Z,5.03
2023-04-05T18:39:27.392Z,5.23
2023-04-05T18:42:32.617Z,6.20
2023-04-05T18:45:37.728Z,5.20
2023-04-05T18:48:40.473Z,4.97
2023-04-05T18:51:43.188Z,5.23
2023-04-05T18:54:47.328Z,4.27
2023-04-05T18:57:50.193Z,2.80
2023-04-05T19:00:53.003Z,7.77
2023-04-05T19:03:56.066Z,7.97
2023-04-05T19:06:58.819Z,4.93
2023-04-05T19:10:02.973Z,4.73
2023-04-05T19:13:05.833Z,5.13
2023-04-05T19:16:08.627Z,5.33
2023-04-05T19:19:11.363Z,4.00
2023-04-05T19:22:14.171Z,5.23
2023-04-05T19:25:18.761Z,4.10
2023-04-05T19:28:21.969Z,4.13
2023-04-05T19:31:26.323Z,4.37
2023-04-05T19:34:29.238Z,5.73
2023-04-05T19:37:32.009Z,8.80
2023-04-05T19:40:37.832Z,5.50
2023-04-05T19:43:41.362Z,6.17
2023-04-05T19:46:44.190Z,6.97
2023-04-05T19:49:48.144Z,5.00
2023-04-05T19:52:51.772Z,5.23
2023-04-05T19:55:55.894Z,6.00
2023-04-05T19:59:00.788Z,5.20
2023-04-05T20:02:10.175Z,6.90
2023-04-05T20:05:15.186Z,7.17
2023-04-05T20:08:17.996Z,9.03
2023-04-05T20:11:22.785Z,7.03
2023-04-05T20:14:28.961Z,5.37
2023-04-05T20:17:31.752Z,5.63
2023-04-05T20:20:34.664Z,4.80
2023-04-05T20:23:39.688Z,7.87
2023-04-05T20:26:44.507Z,7.27
2023-04-05T20:29:47.344Z,6.67
2023-04-05T20:32:50.547Z,6.40
2023-04-05T20:35:53.464Z,6.53
2023-04-05T20:38:56.344Z,7.30
2023-04-05T20:42:00.829Z,6.70
2023-04-05T20:45:03.672Z,5.80
2023-04-05T20:48:06.949Z,7.70
2023-04-05T20:51:10.878Z,7.20
2023-04-05T20:54:13.636Z,7.47
2023-04-05T20:57:17.946Z,6.50
2023-04-05T21:00:21.526Z,5.97
2023-04-05T21:03:24.671Z,7.07
2023-04-05T21:06:27.531Z,7.97
2023-04-05T21:09:30.416Z,6.87
2023-04-05T21:12:34.560Z,8.10
2023-04-05T21:15:37.391Z,8.43
2023-04-05T21:18:40.247Z,6.33
2023-04-05T21:21:43.014Z,7.60
2023-04-05T21:24:45.701Z,6.40
2023-04-05T21:27:49.850Z,6.67
2023-04-05T21:30:52.621Z,6.37
2023-04-05T21:33:55.743Z,7.50
2023-04-05T21:36:58.449Z,6.77
2023-04-05T21:40:03.965Z,6.80
2023-04-05T21:43:08.146Z,8.87
2023-04-05T21:46:11.814Z,7.73
2023-04-05T21:49:14.587Z,6.47
2023-04-05T21:52:17.286Z,8.97
2023-04-05T21:55:20.330Z,8.30
2023-04-05T21:58:26.320Z,8.63
2023-04-05T22:01:29.076Z,9.07
2023-04-05T22:04:31.943Z,7.73
2023-04-05T22:07:35.376Z,8.93
2023-04-05T22:10:38.736Z,6.37
2023-04-05T22:13:42.838Z,8.60
2023-04-05T22:16:45.773Z,9.33
2023-04-05T22:19:48.493Z,7.50
2023-04-05T22:22:51.860Z,9.23
2023-04-05T22:25:54.663Z,7.03
2023-04-05T22:28:58.813Z,8.33
2023-04-05T22:32:01.765Z,7.90
2023-04-05T22:35:04.849Z,6.63
2023-04-05T22:38:07.629Z,9.80
2023-04-05T22:41:10.681Z,8.43
2023-04-05T22:44:14.788Z,7.93
2023-04-05T22:47:17.581Z,7.83
2023-04-05T22:50:20.608Z,11.53
2023-04-05T22:53:24.305Z,6.83
2023-04-05T22:56:27.142Z,6.83
2023-04-05T22:59:31.608Z,7.23
2023-04-05T23:02:34.530Z,9.70
2023-04-05T23:05:38.375Z,7.40
2023-04-05T23:08:41.198Z,8.13
2023-04-05T23:11:43.991Z,7.07
2023-04-05T23:14:48.341Z,8.23
2023-04-05T23:17:51.129Z,6.23
2023-04-05T23:20:53.983Z,6.40
2023-04-05T23:23:56.860Z,8.10
2023-04-05T23:26:59.574Z,7.13
2023-04-05T23:30:03.921Z,9.07
2023-04-05T23:33:06.748Z,8.60
2023-04-05T23:36:10.624Z,6.63
2023-04-05T23:39:13.482Z,7.90
2023-04-05T23:42:16.648Z,6.83
2023-04-05T23:45:20.783Z,8.80
2023-04-05T23:48:23.603Z,8.87
2023-04-05T23:51:26.500Z,7.13
2023-04-05T23:54:29.217Z,9.37
2023-04-05T23:57:31.899Z,9.70
